CheckWX is a tool to help pilots better visualize weather data.  It is not intended as a substitute for an official pre-flight weather briefing.

09:28:09 UTC

KGWW METAR
Wayne Executive Jetport Airport
Goldsboro, North Carolina, USA
Current

13 mins ago

KGWW 070915Z AUTO 00000KT 1 1/4SM BR VV007 21/21 A3006 RMK AO2 T02050205
Observed
Jul-7 @ 09:15 UTC
Visibility
Flight Rules
LIFR
Conditions
Mist
Cloud Levels
  • Vertical visibility
Temperature
20°C / 68°F
Dewpoint
20°C / 68°F
Humidity
100%
Altimeter
30.06" Hg
Pressure
1017.92 hPa
Previous

33 mins ago

KGWW 070855Z AUTO 00000KT 1SM BR VV007 21/21 A3006 RMK AO2 T02100210
Observed
Jul-7 @ 08:55 UTC
Visibility
Flight Rules
LIFR
Conditions
Mist
Cloud Levels
  • Vertical visibility
Temperature
21°C / 70°F
Dewpoint
21°C / 70°F
Humidity
100%
Altimeter
30.06" Hg
Pressure
1017.92 hPa
Previous

53 mins ago

KGWW 070835Z AUTO 00000KT 2SM BR CLR 21/21 A3006 RMK AO2 T02070207
Observed
Jul-7 @ 08:35 UTC
Visibility
2 SM
Flight Rules
IFR
Conditions
Mist
Cloud Levels
  • Clear skies
Temperature
21°C / 70°F
Dewpoint
21°C / 70°F
Humidity
100%
Altimeter
30.06" Hg
Pressure
1017.92 hPa